createdAt,value
2022-10-26T00:01:26.253Z,13.51
2022-10-26T00:03:57.858Z,13.16
2022-10-26T00:06:29.006Z,13.36
2022-10-26T00:08:59.410Z,13.71
2022-10-26T00:11:27.756Z,13.79
2022-10-26T00:13:56.296Z,13.74
2022-10-26T00:16:28.399Z,13.70
2022-10-26T00:18:56.998Z,13.72
2022-10-26T00:21:25.274Z,13.79
2022-10-26T00:23:53.702Z,13.84
2022-10-26T00:26:23.275Z,13.93
2022-10-26T00:28:55.118Z,13.91
2022-10-26T00:31:23.929Z,13.94
2022-10-26T00:33:54.964Z,13.78
2022-10-26T00:36:23.709Z,13.95
2022-10-26T00:38:53.610Z,13.90
2022-10-26T00:41:26.014Z,13.77
2022-10-26T00:43:55.846Z,14.04
2022-10-26T00:46:29.257Z,13.83
2022-10-26T00:49:01.582Z,13.64
2022-10-26T00:51:34.918Z,14.19
2022-10-26T00:54:07.991Z,13.66
2022-10-26T00:56:37.769Z,14.17
2022-10-26T00:59:10.833Z,14.21
2022-10-26T01:01:42.513Z,14.24
2022-10-26T01:04:11.448Z,14.13
2022-10-26T01:06:41.158Z,14.24
2022-10-26T01:09:10.954Z,14.04
2022-10-26T01:11:40.955Z,14.31
2022-10-26T01:14:12.176Z,14.33
2022-10-26T01:16:59.595Z,14.24
2022-10-26T01:20:20.195Z,14.33
2022-10-26T01:22:55.206Z,14.05
2022-10-26T01:25:47.070Z,14.33
2022-10-26T01:28:33.097Z,14.37
2022-10-26T01:31:08.031Z,14.29
2022-10-26T01:33:44.773Z,14.14
2022-10-26T01:36:20.327Z,13.88
2022-10-26T01:38:58.693Z,14.37
2022-10-26T01:41:33.092Z,14.37
2022-10-26T01:44:05.865Z,14.43
2022-10-26T01:46:40.475Z,14.41
2022-10-26T01:49:12.749Z,14.49
2022-10-26T01:51:45.453Z,14.16
2022-10-26T01:54:14.141Z,14.23
2022-10-26T01:56:45.765Z,14.25
2022-10-26T01:59:51.320Z,14.44
2022-10-26T02:02:58.870Z,14.33
2022-10-26T02:05:40.210Z,14.32
2022-10-26T02:08:40.783Z,14.22
2022-10-26T02:11:22.969Z,14.04
2022-10-26T02:13:58.519Z,13.68
2022-10-26T02:16:34.672Z,14.00
2022-10-26T02:19:11.755Z,14.15
2022-10-26T02:21:45.628Z,14.12
2022-10-26T02:24:17.809Z,13.82
2022-10-26T02:26:51.396Z,14.10
2022-10-26T02:29:21.665Z,14.01
2022-10-26T02:31:52.505Z,14.23
2022-10-26T02:34:27.768Z,13.93
2022-10-26T02:37:01.174Z,14.04
2022-10-26T02:39:33.867Z,14.53
2022-10-26T02:42:05.867Z,14.48
2022-10-26T02:44:43.645Z,14.45
2022-10-26T02:47:12.813Z,14.59
2022-10-26T02:49:42.717Z,14.63
2022-10-26T02:52:16.619Z,14.22
2022-10-26T02:54:54.217Z,14.64
2022-10-26T02:57:29.333Z,14.63
2022-10-26T02:59:59.197Z,14.43
2022-10-26T03:02:30.159Z,14.64
2022-10-26T03:05:11.642Z,14.61
2022-10-26T03:07:40.010Z,14.68
2022-10-26T03:10:09.732Z,14.74
2022-10-26T03:12:38.040Z,14.78
2022-10-26T03:15:07.708Z,14.79
2022-10-26T03:17:35.997Z,14.79
2022-10-26T03:20:07.660Z,14.78
2022-10-26T03:22:36.001Z,14.79
2022-10-26T03:25:05.209Z,14.89
2022-10-26T03:27:35.121Z,14.89
2022-10-26T03:30:03.400Z,14.92
2022-10-26T03:32:31.797Z,14.57
2022-10-26T03:35:00.138Z,14.83
2022-10-26T03:37:30.412Z,15.01
2022-10-26T03:39:58.714Z,14.60
2022-10-26T03:42:27.982Z,15.07
2022-10-26T03:44:56.191Z,14.92
2022-10-26T03:47:24.533Z,15.11
2022-10-26T03:49:52.963Z,14.86
2022-10-26T03:52:21.262Z,14.96
2022-10-26T03:54:51.084Z,15.13
2022-10-26T03:57:19.648Z,15.14
2022-10-26T03:59:47.924Z,15.03
2022-10-26T04:02:16.451Z,14.99
2022-10-26T04:04:44.730Z,15.26
2022-10-26T04:07:12.957Z,15.32
2022-10-26T04:09:41.266Z,15.25
2022-10-26T04:12:11.264Z,15.36
2022-10-26T04:14:39.546Z,15.37
2022-10-26T04:17:07.932Z,15.36
2022-10-26T04:19:36.204Z,14.88
2022-10-26T04:22:04.635Z,15.24
2022-10-26T04:24:33.457Z,15.12
2022-10-26T04:27:01.696Z,15.18
2022-10-26T04:29:31.346Z,15.22
2022-10-26T04:31:59.715Z,14.94
2022-10-26T04:34:27.937Z,15.13
2022-10-26T04:36:57.032Z,14.92
2022-10-26T04:39:25.761Z,15.22
2022-10-26T04:41:55.245Z,14.92
2022-10-26T04:44:23.624Z,14.90
2022-10-26T04:46:53.335Z,15.08
2022-10-26T04:49:21.640Z,15.18
2022-10-26T04:51:49.919Z,15.23
2022-10-26T04:54:18.240Z,15.06
2022-10-26T04:59:19.698Z,15.43
2022-10-26T05:01:48.036Z,15.28
2022-10-26T05:04:17.752Z,15.28
2022-10-26T05:06:46.068Z,15.44
2022-10-26T05:09:14.372Z,15.52
2022-10-26T05:11:42.667Z,15.41
2022-10-26T05:14:10.896Z,15.31
2022-10-26T05:16:39.290Z,15.32
2022-10-26T05:19:07.662Z,15.14
2022-10-26T05:21:37.717Z,15.32
2022-10-26T05:24:10.108Z,15.22
2022-10-26T05:26:40.986Z,15.01
2022-10-26T05:29:09.283Z,15.28
2022-10-26T05:31:37.659Z,15.21
2022-10-26T05:34:06.064Z,15.29
2022-10-26T05:36:34.296Z,15.30
2022-10-26T05:39:04.903Z,15.23
2022-10-26T05:41:33.227Z,15.34
2022-10-26T05:44:01.866Z,15.20
2022-10-26T05:46:30.190Z,15.28
2022-10-26T05:48:58.674Z,15.22
2022-10-26T05:51:27.004Z,15.26
2022-10-26T05:53:55.608Z,15.29
2022-10-26T05:56:37.035Z,14.82
2022-10-26T05:59:12.249Z,15.16
2022-10-26T06:01:56.654Z,15.12
2022-10-26T06:04:38.523Z,15.14
2022-10-26T06:07:14.097Z,15.15
2022-10-26T06:09:43.627Z,15.25
2022-10-26T06:12:18.458Z,15.18
2022-10-26T06:14:48.844Z,15.30
2022-10-26T06:17:37.664Z,15.31
2022-10-26T06:20:32.063Z,15.33
2022-10-26T06:23:25.311Z,15.27
2022-10-26T06:26:03.265Z,15.35
2022-10-26T06:28:46.129Z,15.41
2022-10-26T06:31:17.625Z,15.42
2022-10-26T06:33:46.206Z,15.26
2022-10-26T06:36:24.572Z,15.37
2022-10-26T06:38:59.800Z,15.37
2022-10-26T06:41:29.272Z,15.17
2022-10-26T06:43:59.823Z,15.21
2022-10-26T06:46:37.851Z,15.20
2022-10-26T06:49:18.326Z,15.43
2022-10-26T06:51:53.859Z,15.31
2022-10-26T06:54:31.168Z,14.92
2022-10-26T06:57:00.149Z,15.36
2022-10-26T06:59:38.637Z,15.07
2022-10-26T07:02:07.404Z,15.02
2022-10-26T07:04:36.290Z,15.15
2022-10-26T07:07:05.734Z,15.15
2022-10-26T07:09:34.269Z,14.78
2022-10-26T07:12:02.767Z,14.82
2022-10-26T07:14:32.469Z,15.10
2022-10-26T07:17:00.922Z,14.85
2022-10-26T07:19:29.248Z,14.94
2022-10-26T07:21:59.247Z,14.80
2022-10-26T07:24:28.074Z,15.06
2022-10-26T07:26:57.369Z,14.99
2022-10-26T07:29:27.961Z,15.05
2022-10-26T07:31:57.662Z,15.29
2022-10-26T07:34:25.967Z,15.43
2022-10-26T07:36:54.377Z,15.59
2022-10-26T07:39:22.558Z,15.48
2022-10-26T07:41:50.940Z,15.65
2022-10-26T07:44:19.401Z,15.50
2022-10-26T07:46:47.808Z,15.68
2022-10-26T07:49:19.514Z,15.57
2022-10-26T07:51:48.279Z,15.66
2022-10-26T07:54:16.588Z,15.65
2022-10-26T07:56:45.137Z,15.71
2022-10-26T07:59:13.944Z,15.70
2022-10-26T08:01:42.792Z,15.77
2022-10-26T08:04:11.369Z,15.80
2022-10-26T08:06:41.102Z,15.45
2022-10-26T08:09:09.422Z,15.84
2022-10-26T08:11:38.043Z,15.61
2022-10-26T08:14:06.733Z,15.68
2022-10-26T08:16:35.563Z,15.98
2022-10-26T08:19:03.933Z,16.02
2022-10-26T08:21:40.431Z,15.86
2022-10-26T08:24:10.776Z,16.02
2022-10-26T08:26:41.155Z,16.42
2022-10-26T08:29:09.802Z,16.47
2022-10-26T08:31:38.100Z,16.63
2022-10-26T08:34:06.405Z,16.59
2022-10-26T08:36:34.849Z,16.85
2022-10-26T08:39:03.068Z,17.02
2022-10-26T08:41:38.896Z,17.04
2022-10-26T08:44:22.947Z,17.10
2022-10-26T08:46:56.313Z,17.11
2022-10-26T08:49:28.548Z,17.07
2022-10-26T08:52:02.546Z,17.39
2022-10-26T08:54:39.786Z,17.56
2022-10-26T08:57:20.334Z,17.78
2022-10-26T08:59:55.299Z,17.69
2022-10-26T09:02:25.082Z,17.61
2022-10-26T09:04:54.459Z,17.73
2022-10-26T09:07:47.297Z,18.30
2022-10-26T09:10:34.981Z,18.37
2022-10-26T09:13:17.829Z,18.28
2022-10-26T09:16:01.421Z,18.50
2022-10-26T09:21:37.024Z,18.62
2022-10-26T09:24:15.294Z,19.04
2022-10-26T09:26:55.836Z,18.63
2022-10-26T09:29:31.565Z,18.89
2022-10-26T09:32:03.713Z,19.05
2022-10-26T09:34:40.272Z,19.28
2022-10-26T09:37:19.990Z,19.33
2022-10-26T09:39:59.248Z,19.51
2022-10-26T09:42:38.539Z,19.50
2022-10-26T09:45:18.190Z,19.46
2022-10-26T09:47:52.875Z,19.42
2022-10-26T09:50:27.298Z,19.73
2022-10-26T09:52:56.078Z,19.89
2022-10-26T09:55:24.521Z,19.85
2022-10-26T09:57:57.772Z,20.05
2022-10-26T10:00:28.915Z,20.02
2022-10-26T10:02:59.076Z,19.99
2022-10-26T10:05:50.269Z,19.99
2022-10-26T10:08:22.964Z,19.87
2022-10-26T10:11:04.804Z,20.01
2022-10-26T10:13:36.678Z,20.19
2022-10-26T10:16:14.568Z,20.45
2022-10-26T10:18:43.513Z,20.26
2022-10-26T10:21:14.223Z,20.58
2022-10-26T10:23:52.287Z,20.45
2022-10-26T10:26:20.874Z,20.52
2022-10-26T10:28:59.822Z,20.72
2022-10-26T10:31:34.695Z,20.83
2022-10-26T10:34:17.751Z,20.84
2022-10-26T10:36:46.766Z,20.66
2022-10-26T10:39:39.777Z,20.49
2022-10-26T10:42:19.640Z,20.38
2022-10-26T10:44:51.949Z,20.35
2022-10-26T10:47:25.734Z,20.07
2022-10-26T10:49:59.953Z,20.27
2022-10-26T10:52:31.683Z,20.65
2022-10-26T10:55:20.745Z,20.60
2022-10-26T10:58:10.762Z,20.45
2022-10-26T11:00:42.573Z,20.66
2022-10-26T11:03:44.850Z,20.35
2022-10-26T11:06:18.547Z,20.55
2022-10-26T11:08:53.834Z,20.79
2022-10-26T11:11:26.833Z,20.76
2022-10-26T11:14:02.864Z,20.53
2022-10-26T11:16:37.687Z,20.80
2022-10-26T11:19:19.543Z,20.78
2022-10-26T11:21:52.897Z,20.81
2022-10-26T11:24:28.369Z,20.84
2022-10-26T11:27:01.180Z,20.92
2022-10-26T11:29:41.680Z,20.81
2022-10-26T11:32:20.133Z,20.99
2022-10-26T11:34:59.055Z,21.35
2022-10-26T11:37:37.517Z,20.96
2022-10-26T11:40:22.859Z,21.13
2022-10-26T11:43:00.174Z,21.30
2022-10-26T11:45:32.553Z,21.45
2022-10-26T11:48:12.752Z,21.28
2022-10-26T11:50:47.991Z,21.58
2022-10-26T11:53:19.654Z,21.26
2022-10-26T11:55:51.449Z,21.56
2022-10-26T11:58:24.042Z,21.79
2022-10-26T12:00:58.104Z,21.98
2022-10-26T12:03:31.349Z,22.06
2022-10-26T12:06:01.051Z,22.12
2022-10-26T12:08:32.149Z,22.08
2022-10-26T12:11:10.856Z,22.03
2022-10-26T12:13:46.365Z,21.92
2022-10-26T12:16:25.706Z,21.91
2022-10-26T12:19:00.433Z,22.09
2022-10-26T12:21:33.313Z,22.24
2022-10-26T12:24:03.745Z,22.17
2022-10-26T12:26:41.188Z,22.50
2022-10-26T12:29:55.006Z,22.67
2022-10-26T12:32:58.105Z,22.71
2022-10-26T12:35:44.498Z,22.29
2022-10-26T12:39:02.322Z,22.65
2022-10-26T12:41:30.724Z,22.87
2022-10-26T12:44:06.139Z,23.05
2022-10-26T12:46:41.281Z,23.40
2022-10-26T12:50:00.593Z,23.35
2022-10-26T12:52:51.196Z,23.14
2022-10-26T12:55:57.295Z,23.11
2022-10-26T12:58:59.139Z,23.36
2022-10-26T13:02:27.467Z,23.72
2022-10-26T13:05:36.328Z,23.65
2022-10-26T13:08:07.581Z,23.56
2022-10-26T13:10:38.145Z,23.33
2022-10-26T13:13:09.971Z,23.41
2022-10-26T13:15:41.977Z,23.40
2022-10-26T13:18:17.014Z,23.33
2022-10-26T13:20:59.623Z,23.49
2022-10-26T13:23:30.533Z,23.57
2022-10-26T13:26:09.628Z,23.85
2022-10-26T13:28:50.565Z,24.04
2022-10-26T13:31:55.896Z,24.02
2022-10-26T13:34:28.966Z,23.90
2022-10-26T13:37:13.369Z,24.00
2022-10-26T13:39:45.285Z,24.16
2022-10-26T13:42:18.685Z,23.87
2022-10-26T13:44:54.933Z,23.78
2022-10-26T13:47:30.219Z,23.89
2022-10-26T13:50:05.577Z,23.82
2022-10-26T13:52:37.620Z,23.73
2022-10-26T13:55:16.572Z,23.58
2022-10-26T13:57:49.536Z,23.31
2022-10-26T14:00:23.052Z,23.40
2022-10-26T14:02:53.574Z,23.52
2022-10-26T14:05:22.225Z,23.28
2022-10-26T14:07:56.600Z,22.99
2022-10-26T14:10:29.472Z,23.29
2022-10-26T14:12:58.713Z,22.97
2022-10-26T14:15:33.226Z,22.91
2022-10-26T14:18:05.172Z,22.77
2022-10-26T14:20:33.985Z,22.91
2022-10-26T14:23:02.522Z,22.66
2022-10-26T14:25:42.069Z,22.38
2022-10-26T14:28:24.365Z,22.48
2022-10-26T14:30:54.240Z,22.38
2022-10-26T14:33:29.102Z,22.43
2022-10-26T14:35:58.078Z,22.56
2022-10-26T14:38:31.540Z,22.49
2022-10-26T14:41:00.216Z,22.46
2022-10-26T14:43:28.963Z,22.63
2022-10-26T14:45:58.800Z,22.50
2022-10-26T14:48:32.242Z,22.44
2022-10-26T14:51:02.800Z,22.57
2022-10-26T14:53:39.122Z,22.59
2022-10-26T14:56:23.503Z,22.36
2022-10-26T14:58:53.016Z,22.25
2022-10-26T15:01:54.444Z,22.31
2022-10-26T15:04:36.986Z,22.13
2022-10-26T15:07:19.353Z,21.78
2022-10-26T15:09:49.244Z,21.91
2022-10-26T15:12:26.650Z,21.81
2022-10-26T15:14:56.382Z,21.59
2022-10-26T15:17:33.120Z,21.83
2022-10-26T15:20:06.452Z,21.89
2022-10-26T15:22:36.119Z,22.12
2022-10-26T15:25:07.166Z,22.29
2022-10-26T15:27:35.576Z,21.96
2022-10-26T15:30:19.085Z,21.94
2022-10-26T15:32:49.689Z,21.88
2022-10-26T15:35:31.373Z,21.85
2022-10-26T15:38:01.578Z,21.77
2022-10-26T15:40:32.520Z,21.78
2022-10-26T15:43:02.315Z,21.72
2022-10-26T15:45:34.865Z,21.80
2022-10-26T15:48:20.841Z,21.70
2022-10-26T15:50:49.150Z,21.75
2022-10-26T15:53:22.025Z,21.96
2022-10-26T15:55:52.349Z,21.89
2022-10-26T15:58:20.711Z,21.85
2022-10-26T16:00:48.985Z,21.50
2022-10-26T16:03:23.109Z,21.25
2022-10-26T16:05:57.790Z,21.44
2022-10-26T16:08:30.609Z,20.93
2022-10-26T16:10:59.375Z,21.20
2022-10-26T16:13:27.944Z,21.22
2022-10-26T16:15:56.212Z,20.81
2022-10-26T16:18:25.921Z,20.93
2022-10-26T16:20:54.193Z,20.89
2022-10-26T16:23:22.485Z,20.79
2022-10-26T16:25:50.770Z,20.46
2022-10-26T16:28:19.128Z,20.62
2022-10-26T16:30:49.111Z,20.54
2022-10-26T16:33:17.416Z,20.38
2022-10-26T16:35:47.239Z,20.52
2022-10-26T16:38:15.587Z,20.19
2022-10-26T16:40:45.115Z,20.20
2022-10-26T16:43:13.471Z,20.36
2022-10-26T16:45:42.644Z,20.25
2022-10-26T16:48:15.124Z,20.01
2022-10-26T16:50:44.008Z,20.12
2022-10-26T16:53:13.711Z,19.64
2022-10-26T16:58:11.547Z,19.81
2022-10-26T17:00:39.852Z,19.60
2022-10-26T17:03:08.149Z,19.40
2022-10-26T17:05:36.548Z,19.38
2022-10-26T17:08:04.947Z,19.52
2022-10-26T17:10:34.636Z,19.12
2022-10-26T17:13:03.844Z,18.99
2022-10-26T17:15:34.071Z,19.04
2022-10-26T17:18:02.421Z,19.19
2022-10-26T17:20:30.892Z,18.66
2022-10-26T17:22:59.160Z,19.07
2022-10-26T17:25:27.486Z,19.18
2022-10-26T17:27:57.302Z,19.05
2022-10-26T17:30:25.621Z,19.31
2022-10-26T17:32:56.537Z,19.38
2022-10-26T17:35:24.870Z,19.29
2022-10-26T17:37:53.536Z,19.37
2022-10-26T17:40:22.169Z,19.30
2022-10-26T17:42:51.498Z,19.01
2022-10-26T17:45:21.212Z,19.09
2022-10-26T17:47:49.731Z,19.12
2022-10-26T17:50:18.386Z,18.96
2022-10-26T17:52:46.838Z,19.09
2022-10-26T17:55:15.932Z,19.09
2022-10-26T17:57:44.191Z,18.92
2022-10-26T18:00:14.485Z,19.16
2022-10-26T18:02:44.199Z,18.85
2022-10-26T18:05:12.731Z,19.07
2022-10-26T18:07:40.995Z,18.95
2022-10-26T18:10:26.177Z,18.89
2022-10-26T18:12:58.722Z,18.55
2022-10-26T18:15:27.262Z,18.70
2022-10-26T18:17:58.565Z,18.63
2022-10-26T18:20:31.383Z,18.37
2022-10-26T18:22:59.629Z,18.50
2022-10-26T18:25:28.427Z,18.57
2022-10-26T18:27:56.766Z,18.21
2022-10-26T18:30:25.637Z,18.28
2022-10-26T18:32:54.514Z,18.43
2022-10-26T18:35:24.603Z,18.41
2022-10-26T18:37:53.302Z,18.25
2022-10-26T18:40:21.830Z,18.20
2022-10-26T18:42:50.151Z,18.15
2022-10-26T18:45:18.629Z,18.09
2022-10-26T18:47:46.821Z,18.00
2022-10-26T18:50:15.264Z,17.77
2022-10-26T18:52:44.917Z,17.34
2022-10-26T18:55:13.233Z,17.76
2022-10-26T18:57:41.789Z,17.63
2022-10-26T19:00:11.903Z,17.83
2022-10-26T19:02:40.176Z,17.77
2022-10-26T19:05:09.315Z,17.65
2022-10-26T19:07:39.326Z,17.60
2022-10-26T19:10:11.059Z,17.69
2022-10-26T19:12:39.336Z,17.69
2022-10-26T19:15:08.852Z,17.30
2022-10-26T19:17:37.117Z,17.61
2022-10-26T19:20:06.898Z,17.68
2022-10-26T19:22:35.201Z,17.64
2022-10-26T19:25:03.852Z,17.45
2022-10-26T19:27:33.556Z,17.48
2022-10-26T19:30:01.893Z,17.49
2022-10-26T19:32:30.218Z,17.46
2022-10-26T19:34:58.518Z,17.55
2022-10-26T19:37:28.548Z,17.55
2022-10-26T19:39:57.065Z,17.56
2022-10-26T19:42:25.378Z,17.52
2022-10-26T19:44:55.160Z,17.58
2022-10-26T19:47:23.912Z,17.19
2022-10-26T19:49:52.364Z,17.42
2022-10-26T19:52:20.653Z,17.48
2022-10-26T19:54:49.202Z,17.52
2022-10-26T19:57:17.491Z,17.47
2022-10-26T19:59:45.817Z,16.97
2022-10-26T20:02:15.465Z,17.18
2022-10-26T20:04:45.254Z,17.40
2022-10-26T20:07:15.240Z,17.39
2022-10-26T20:09:43.736Z,17.43
2022-10-26T20:12:12.719Z,17.03
2022-10-26T20:14:41.337Z,17.40
2022-10-26T20:17:09.887Z,17.35
2022-10-26T20:19:39.692Z,17.12
2022-10-26T20:22:08.321Z,17.38
2022-10-26T20:24:36.809Z,17.43
2022-10-26T20:27:05.356Z,17.35
2022-10-26T20:29:33.867Z,17.77
2022-10-26T20:32:02.243Z,17.76
2022-10-26T20:34:30.593Z,17.70
2022-10-26T20:37:00.278Z,17.71
2022-10-26T20:39:29.455Z,17.87
2022-10-26T20:41:58.945Z,17.89
2022-10-26T20:44:32.983Z,17.83
2022-10-26T20:47:02.203Z,17.75
2022-10-26T20:49:31.469Z,18.00
2022-10-26T20:52:20.840Z,17.99
2022-10-26T20:54:57.066Z,17.96
2022-10-26T20:57:32.773Z,17.85
2022-10-26T21:00:04.839Z,17.84
2022-10-26T21:02:33.366Z,17.99
2022-10-26T21:05:01.854Z,17.90
2022-10-26T21:07:31.583Z,17.93
2022-10-26T21:09:59.957Z,17.90
2022-10-26T21:12:28.248Z,17.90
2022-10-26T21:14:57.804Z,17.88
2022-10-26T21:17:26.146Z,17.51
2022-10-26T21:19:54.724Z,18.00
2022-10-26T21:22:23.510Z,18.00
2022-10-26T21:24:53.215Z,18.04
2022-10-26T21:27:21.606Z,18.28
2022-10-26T21:29:49.832Z,18.14
2022-10-26T21:32:18.614Z,18.32
2022-10-26T21:34:46.917Z,18.15
2022-10-26T21:37:15.248Z,18.28
2022-10-26T21:39:43.626Z,18.44
2022-10-26T21:42:13.275Z,18.49
2022-10-26T21:44:42.005Z,18.43
2022-10-26T21:47:11.137Z,18.27
2022-10-26T21:52:08.650Z,18.23
2022-10-26T21:54:37.150Z,18.37
2022-10-26T21:57:05.689Z,18.41
2022-10-26T21:59:35.346Z,18.60
2022-10-26T22:02:03.801Z,18.29
2022-10-26T22:04:32.081Z,18.44
2022-10-26T22:07:00.505Z,18.39
2022-10-26T22:09:28.771Z,18.26
2022-10-26T22:11:57.200Z,18.01
2022-10-26T22:14:25.597Z,18.09
2022-10-26T22:16:55.339Z,18.04
2022-10-26T22:19:23.933Z,17.70
2022-10-26T22:21:52.350Z,17.86
2022-10-26T22:24:20.591Z,17.63
2022-10-26T22:26:48.875Z,17.71
2022-10-26T22:29:17.154Z,17.90
2022-10-26T22:31:45.556Z,17.96
2022-10-26T22:34:17.768Z,17.82
2022-10-26T22:36:46.120Z,17.62
2022-10-26T22:39:14.596Z,17.71
2022-10-26T22:41:43.347Z,17.89
2022-10-26T22:44:11.638Z,17.89
2022-10-26T22:46:39.983Z,17.71
2022-10-26T22:49:08.327Z,17.84
2022-10-26T22:51:38.035Z,17.75
2022-10-26T22:54:07.233Z,17.52
2022-10-26T22:56:37.102Z,17.56
2022-10-26T22:59:06.704Z,17.18
2022-10-26T23:01:42.015Z,17.24
2022-10-26T23:04:13.115Z,17.05
2022-10-26T23:06:42.898Z,17.13
2022-10-26T23:09:11.231Z,17.08
2022-10-26T23:11:39.498Z,17.22
2022-10-26T23:14:07.779Z,17.20
2022-10-26T23:16:36.053Z,17.07
2022-10-26T23:19:04.298Z,17.13
2022-10-26T23:21:32.605Z,16.87
2022-10-26T23:24:02.519Z,16.94
2022-10-26T23:26:31.715Z,17.02
2022-10-26T23:28:59.973Z,17.02
2022-10-26T23:31:30.693Z,16.78
2022-10-26T23:33:59.171Z,16.68
2022-10-26T23:36:27.659Z,16.90
2022-10-26T23:38:56.097Z,16.72
2022-10-26T23:41:26.106Z,16.62
2022-10-26T23:43:54.413Z,16.79
2022-10-26T23:46:22.787Z,16.81
2022-10-26T23:48:51.084Z,16.76
2022-10-26T23:51:19.391Z,16.49
2022-10-26T23:53:47.609Z,16.72
2022-10-26T23:56:15.875Z,16.42
2022-10-26T23:58:45.536Z,16.32
